Weather reports worldwide

Advertisment
Besancon, France (7288): temperature & dewpoint: 20.09.2018 11:00:00 - 26.09.2018 11:00:00 (CEST)Besancon, France (7288): temperature 5cm: 20.09.2018 11:00:00 - 26.09.2018 11:00:00 (CEST)Besancon, France (7288): temperature -20cm & temperature -100cm: 20.09.2018 11:00:00 - 26.09.2018 11:00:00 (CEST)Besancon, France (7288): wind speed & gusts: 20.09.2018 11:00:00 - 26.09.2018 11:00:00 (CEST)Besancon, France (7288): wind direction: 20.09.2018 11:00:00 - 26.09.2018 11:00:00 (CEST)Besancon, France (7288): reduced air pressure: 20.09.2018 11:00:00 - 26.09.2018 11:00:00 (CEST)Besancon, France (7288): sunshine duration: 20.09.2018 11:00:00 - 26.09.2018 11:00:00 (CEST)Besancon, France (7288): precipitation: 20.09.2018 11:00:00 - 26.09.2018 11:00:00 (CEST)
Date & Time tt [°C] td [°C] tt 5cm [°C] tt -20cm [°C] tt -100cm [°C] ff [km/h] ff [kn] fx [km/h] fx [kn] dd ppp [hPa] sd [min] rr [mm]
26.09.2018 11:00:00 14,6 5,4 20,1 15,2 18,3 0 0 6 3 N 1034,6 60 0,0
26.09.2018 10:00:00 10,3 3,8 6,7 15,4 18,3 0 0 7 4 N 1034,7 60 0,0
26.09.2018 09:00:00 6,3 2,7 3,4 15,5 18,4 0 0 4 2 N 1034,8 29 0,0
26.09.2018 08:00:00 5,1 2,3 1,6 15,6 18,3 0 0 5 3 N 1034,3 0 0,0
26.09.2018 07:00:00 5,1 2,3 1,3 15,7 18,4 0 0 5 3 N 1033,9 0 0,0
26.09.2018 06:00:00 5,3 2,1 1,5 15,9 18,4 0 0 4 2 N 1032,8 0 0,0
26.09.2018 05:00:00 5,9 2,2 2,0 16,0 18,4 0 0 6 3 N 1032,8 0 0,0
26.09.2018 04:00:00 6,7 2,0 2,6 16,1 18,4 0 0 9 5 N 1032,7 0 0,0
26.09.2018 03:00:00 8,0 1,8 4,7 16,2 18,4 0 0 11 6 N 1032,8 0 0,0
26.09.2018 02:00:00 9,0 1,6 6,0 16,3 18,4 3 2 11 6 E 1033,0 0 0,0
26.09.2018 01:00:00 9,2 1,6 6,2 16,4 18,4 3 2 11 6 NE 1032,9 0 0,0
26.09.2018 00:00:00 9,7 1,8 6,2 16,5 18,4 3 2 15 8 NE 1032,6 0 0,0
25.09.2018 23:00:00 9,9 3,0 6,5 16,6 18,5 4 2 14 8 NE 1032,8 0 0,0
25.09.2018 22:00:00 10,6 3,1 7,1 16,6 18,5 5 3 13 7 NNE 1032,4 0 0,0
25.09.2018 21:00:00 11,8 3,3 8,6 16,6 18,5 5 3 16 9 NNE 1032,3 0 0,0
25.09.2018 20:00:00 13,2 3,8 9,9 16,6 18,5 5 3 22 12 NNE 1032,2 5 0,0
25.09.2018 19:00:00 15,6 3,7 13,7 16,5 18,5 6 3 26 14 NE 1031,6 55 0,0
25.09.2018 18:00:00 17,1 3,4 19,7 16,4 18,5 7 4 37 20 NE 1031,4 60 0,0
25.09.2018 17:00:00 17,5 3,7 20,8 16,3 18,5 8 4 46 25 NE 1031,4 60 0,0
25.09.2018 16:00:00 17,2 5,5 - 16,1 18,5 12 7 39 21 NE 1031,7 60 -
25.09.2018 15:00:00 16,6 4,0 25,2 16,0 18,5 14 7 41 22 NNE 1032,3 60 0,0
25.09.2018 14:00:00 15,8 3,9 25,3 15,9 18,5 14 8 44 24 NNE 1032,7 60 0,0
25.09.2018 13:00:00 15,2 4,5 23,1 15,9 18,6 10 6 40 22 NNE 1032,9 60 0,0
25.09.2018 12:00:00 13,8 4,1 20,5 15,9 18,5 10 5 37 20 NE 1033,4 60 0,0
25.09.2018 11:00:00 12,2 3,9 16,3 16,0 18,5 6 3 31 17 NE 1033,6 60 0,0
25.09.2018 10:00:00 10,1 4,0 7,7 16,1 18,5 9 5 35 19 NE 1034,0 60 0,0
25.09.2018 09:00:00 8,2 3,6 5,8 16,3 18,6 8 5 34 18 NE 1034,1 27 0,0
25.09.2018 08:00:00 7,1 3,5 5,2 16,4 18,6 10 6 26 14 NNE 1033,9 0 0,0
25.09.2018 07:00:00 7,0 3,4 5,2 16,6 18,6 10 6 23 12 NNE 1033,5 0 0,0
25.09.2018 06:00:00 7,1 3,3 5,2 16,7 18,6 7 4 23 13 NE 1033,7 0 0,0
25.09.2018 05:00:00 7,5 3,5 5,4 16,8 18,6 6 3 27 14 NNE 1033,7 0 0,0
25.09.2018 04:00:00 8,1 3,4 5,9 17,0 18,6 9 5 30 16 NE 1033,8 0 0,0
25.09.2018 03:00:00 7,9 3,0 4,3 17,1 18,6 10 5 23 13 NNE 1034,1 0 0,0
25.09.2018 02:00:00 7,1 2,4 4,2 17,2 18,6 3 2 13 7 NE 1034,1 0 0,0
25.09.2018 01:00:00 7,8 2,9 4,7 17,4 18,6 6 3 16 9 NNE 1034,2 0 0,0
25.09.2018 00:00:00 8,2 3,0 5,0 17,5 18,6 3 2 15 8 NE 1034,3 0 0,0
24.09.2018 23:00:00 8,4 2,8 4,5 17,6 18,6 0 0 16 9 N 1034,2 0 0,0
24.09.2018 22:00:00 10,1 3,4 6,7 17,7 18,6 6 3 19 11 NNE 1034,0 0 0,0
24.09.2018 21:00:00 11,2 3,0 8,3 17,8 18,6 9 5 20 11 NNE 1033,4 0 0,0
24.09.2018 20:00:00 11,8 2,0 8,4 17,8 18,7 7 4 18 10 NNE 1032,9 7 0,0
24.09.2018 19:00:00 14,2 1,5 12,5 17,8 18,6 6 3 22 12 NNE 1032,1 38 0,0
24.09.2018 18:00:00 15,9 3,0 16,4 17,7 18,7 5 3 29 15 NE 1031,5 49 0,0
24.09.2018 17:00:00 15,8 2,6 17,7 17,6 18,6 11 6 32 18 NNE 1031,5 54 0,0
24.09.2018 16:00:00 16,4 3,4 23,7 17,6 18,6 7 4 37 20 NE 1031,4 60 0,0
24.09.2018 15:00:00 15,9 4,9 18,6 17,5 18,7 9 5 36 19 NE 1031,6 47 0,0
24.09.2018 14:00:00 14,3 4,8 18,4 17,5 18,7 14 8 37 20 NNE 1032,0 41 0,0
24.09.2018 13:00:00 13,3 5,7 15,1 17,6 18,6 12 6 33 18 NNE 1032,2 7 0,0
24.09.2018 12:00:00 12,0 6,3 13,6 17,7 18,7 8 4 29 16 NE 1032,8 0 0,0
24.09.2018 11:00:00 11,6 7,3 14,1 17,7 18,7 13 7 - - NNE 1032,5 - -
24.09.2018 10:00:00 10,4 6,9 9,3 17,8 18,7 10 5 23 13 NNE 1032,2 23 0,0
24.09.2018 09:00:00 9,0 7,0 7,4 18,0 18,7 7 4 18 10 NNE 1032,0 1 0,0
24.09.2018 08:00:00 8,2 6,3 7,0 18,1 18,7 7 4 24 13 NNE 1031,3 0 0,0
24.09.2018 07:00:00 9,1 7,0 8,2 18,2 18,7 13 7 30 16 N 1030,4 0 0,2
24.09.2018 06:00:00 9,5 7,6 8,4 18,3 18,7 11 6 19 10 N 1029,7 0 0,0
24.09.2018 05:00:00 9,9 8,2 9,1 18,5 18,7 10 5 29 15 N 1029,0 0 0,0
24.09.2018 04:00:00 10,8 8,6 9,8 18,6 18,7 9 5 18 10 N 1028,0 0 0,0
24.09.2018 03:00:00 11,2 9,1 10,0 18,7 18,7 6 3 22 12 N 1027,6 0 0,0
24.09.2018 02:00:00 11,6 9,2 10,4 18,7 18,7 5 3 12 6 N 1027,1 0 0,0
24.09.2018 01:00:00 11,9 9,6 10,9 18,8 18,7 5 3 15 8 NNW 1026,0 0 0,0
24.09.2018 00:00:00 12,2 9,6 11,2 18,9 18,7 4 2 12 7 NNW 1025,3 0 0,0
23.09.2018 23:00:00 12,4 10,1 11,5 19,0 18,7 6 3 19 11 N 1024,4 0 0,0
23.09.2018 22:00:00 13,2 11,1 12,3 19,0 18,7 11 6 29 16 N 1022,2 0 2,1
23.09.2018 21:00:00 14,1 13,1 13,6 19,0 18,7 13 7 68 37 NNW 1019,6 0 6,7
23.09.2018 20:00:00 23,8 15,3 20,3 19,0 18,7 21 11 46 25 WSW 1014,3 0 0,0
23.09.2018 19:00:00 23,6 15,9 20,1 18,9 18,7 16 8 40 22 SW 1013,7 0 0,0
23.09.2018 18:00:00 24,1 15,8 23,8 18,8 18,7 16 9 40 22 SW 1013,9 6 0,0
23.09.2018 17:00:00 24,0 15,2 23,2 18,8 18,7 17 9 43 23 SW 1015,0 11 0,0
23.09.2018 16:00:00 23,1 14,6 22,9 18,7 18,7 14 8 45 24 SW 1015,7 0 0,0
23.09.2018 15:00:00 22,8 15,1 22,4 18,6 18,7 17 9 41 22 SW 1016,3 4 0,0
23.09.2018 14:00:00 21,3 16,0 19,4 18,6 18,7 15 8 42 23 SW 1017,2 1 0,0
23.09.2018 13:00:00 20,7 15,9 17,9 18,6 18,8 15 8 36 19 SW 1018,0 1 0,2
23.09.2018 12:00:00 19,5 15,4 17,1 18,6 18,8 16 9 36 19 SW 1018,8 0 0,0
23.09.2018 11:00:00 17,4 15,7 16,5 18,6 18,8 12 7 42 23 SSW 1019,4 0 0,4
23.09.2018 10:00:00 17,7 15,1 16,1 18,6 18,8 16 8 46 25 SW 1019,6 0 0,2
23.09.2018 09:00:00 19,9 12,9 19,2 18,6 18,8 19 10 41 22 SW 1018,9 0 0,0
23.09.2018 08:00:00 19,8 12,3 19,1 18,7 18,8 14 8 35 19 SSW 1018,8 0 0,0
23.09.2018 07:00:00 19,6 12,4 18,4 18,7 18,8 13 7 32 17 SW 1018,9 0 0,0
23.09.2018 06:00:00 19,0 12,3 18,5 18,7 18,8 8 5 27 15 SSW 1019,2 0 0,0
23.09.2018 05:00:00 19,9 10,0 19,4 18,8 18,8 14 8 38 21 SW 1019,6 0 0,0
23.09.2018 04:00:00 20,1 7,8 19,2 18,8 18,8 8 5 32 17 SSW 1019,8 0 0,0
23.09.2018 03:00:00 19,8 6,9 18,8 18,9 18,8 16 9 38 20 SW 1020,2 0 0,0
23.09.2018 02:00:00 19,9 5,5 19,3 18,9 18,8 16 8 36 19 SW 1020,7 0 0,0
23.09.2018 01:00:00 20,0 4,9 17,3 19,0 18,8 12 6 26 14 SW 1020,2 0 0,0
23.09.2018 00:00:00 17,8 6,6 16,4 19,0 18,8 4 2 10 5 SSW 1020,5 0 0,0
22.09.2018 23:00:00 17,4 7,7 16,3 19,0 18,8 3 2 14 8 SW 1021,2 0 0,0
22.09.2018 22:00:00 16,9 8,1 16,2 19,1 18,8 5 3 16 9 SSW 1021,1 0 0,0
22.09.2018 21:00:00 16,8 7,7 15,9 19,0 18,8 4 2 9 5 SSW 1021,2 0 0,0
22.09.2018 20:00:00 17,2 6,4 16,4 19,0 18,8 6 3 13 7 SW 1021,0 6 0,0
22.09.2018 19:00:00 17,8 5,7 17,8 18,9 18,8 6 3 14 8 WSW 1020,9 26 0,0
22.09.2018 18:00:00 18,4 5,6 19,3 18,8 18,8 5 3 16 8 WSW 1021,1 4 0,0
22.09.2018 17:00:00 19,3 5,0 22,2 18,7 18,8 8 4 16 9 WSW 1021,8 39 0,0
22.09.2018 16:00:00 18,9 5,7 23,0 18,5 18,8 4 2 15 8 NW 1022,2 34 0,0
22.09.2018 15:00:00 18,5 6,0 26,2 18,3 18,8 4 2 16 8 WNW 1022,4 54 0,0
22.09.2018 14:00:00 17,5 6,1 25,6 18,2 18,8 6 3 13 7 NW 1023,4 49 0,0
22.09.2018 13:00:00 16,9 6,7 26,4 18,1 18,8 4 2 11 6 WNW 1023,9 60 0,0
22.09.2018 12:00:00 15,6 7,6 16,6 18,1 18,8 4 2 8 5 W 1024,8 55 0,0
22.09.2018 11:00:00 13,4 9,4 14,1 18,2 18,8 0 0 6 3 N 1025,4 19 0,0
22.09.2018 10:00:00 11,9 10,8 11,8 18,2 18,8 3 1 5 3 W 1025,5 16 0,0
22.09.2018 09:00:00 10,9 10,9 7,7 18,4 18,9 0 0 3 2 N 1025,5 21 0,0
22.09.2018 08:00:00 9,7 9,6 6,3 18,6 18,9 0 0 3 2 N 1025,9 0 0,0
22.09.2018 07:00:00 10,2 10,0 7,9 18,7 18,9 2 1 3 1 NNE 1025,1 0 0,0
22.09.2018 06:00:00 - - - - - - - - - - - - -
22.09.2018 05:00:00 - - - - - - - - - - - - -
22.09.2018 04:00:00 - - - - - - - - - - - - -
22.09.2018 03:00:00 11,1 10,5 9,8 19,1 18,8 0 0 8 4 N 1025,2 0 0,0
22.09.2018 02:00:00 11,1 10,5 10,1 19,3 18,9 2 1 6 4 WSW 1025,1 0 0,0
22.09.2018 01:00:00 10,8 10,3 8,4 19,4 18,8 2 1 6 4 SSW 1024,8 0 0,0
22.09.2018 00:00:00 11,0 10,5 8,8 19,5 18,9 2 1 8 4 SSW 1024,3 0 0,0
21.09.2018 23:00:00 11,1 10,5 9,8 19,7 18,8 0 0 7 4 N 1024,2 0 0,0
21.09.2018 22:00:00 11,3 10,7 9,5 19,8 18,8 0 0 5 3 N 1023,6 0 0,0
21.09.2018 21:00:00 11,2 10,4 9,8 19,9 18,8 0 0 5 3 N 1023,0 0 0,0
21.09.2018 20:00:00 11,8 10,7 10,7 20,0 18,8 4 2 13 7 S 1021,8 0 0,0
21.09.2018 19:00:00 12,4 11,6 11,8 20,0 18,8 3 2 14 8 SSW 1020,9 0 3,7
21.09.2018 18:00:00 12,7 11,1 12,1 20,0 18,8 13 7 37 20 NW 1020,2 0 5,2
21.09.2018 17:00:00 15,8 13,3 15,6 19,9 18,8 14 8 42 23 WNW 1017,7 0 0,0
21.09.2018 16:00:00 22,5 12,1 23,0 19,9 18,8 11 6 36 20 WSW 1014,5 0 0,0
21.09.2018 15:00:00 22,7 11,1 23,7 19,8 18,8 13 7 42 23 WSW 1014,1 0 0,0
21.09.2018 14:00:00 22,9 13,4 18,2 19,8 18,8 11 6 33 18 WSW 1014,4 0 0,0
21.09.2018 13:00:00 23,1 13,6 23,5 19,7 18,8 16 9 43 23 SW 1013,9 15 0,0
21.09.2018 12:00:00 23,3 14,3 25,1 19,7 18,8 15 8 36 19 SW 1013,9 13 0,0
21.09.2018 11:00:00 23,3 13,5 24,8 19,7 18,8 12 7 35 19 WSW 1014,0 33 0,0
21.09.2018 10:00:00 21,1 14,0 19,0 19,8 18,8 10 5 23 13 WSW 1014,2 47 0,0
21.09.2018 09:00:00 18,8 13,2 14,8 19,9 18,8 4 2 10 5 SW 1013,6 12 0,0
21.09.2018 08:00:00 16,2 12,4 13,2 20,0 18,8 0 0 6 4 N 1013,6 16 0,0
21.09.2018 07:00:00 17,5 12,4 13,8 20,1 18,8 4 2 10 5 SW 1013,2 0 0,0
21.09.2018 06:00:00 17,8 12,3 12,3 20,3 18,8 3 2 9 5 SW 1013,3 0 0,0
21.09.2018 05:00:00 16,2 12,9 12,1 20,4 18,8 0 0 3 2 N 1013,7 0 0,0
21.09.2018 04:00:00 16,1 12,8 12,3 20,5 18,8 0 0 3 1 N 1014,1 0 0,0
21.09.2018 03:00:00 16,2 13,3 11,6 20,6 18,8 0 0 5 3 N 1014,4 0 0,0
21.09.2018 02:00:00 15,6 13,1 11,4 20,7 18,8 0 0 5 3 N 1014,7 0 0,0
21.09.2018 01:00:00 16,3 13,2 11,8 20,8 18,8 0 0 7 4 N 1015,1 0 0,0
21.09.2018 00:00:00 16,3 13,2 11,5 20,9 18,8 0 0 4 2 N 1015,5 0 0,0
20.09.2018 23:00:00 17,1 13,4 12,3 21,0 18,8 0 0 4 2 N 1015,8 0 0,0
20.09.2018 22:00:00 18,8 13,4 13,3 21,0 18,8 0 0 6 3 N 1016,0 0 0,0
20.09.2018 21:00:00 21,1 13,3 15,3 21,0 18,8 0 0 4 2 N 1016,0 0 0,0
20.09.2018 20:00:00 23,4 13,3 17,3 20,9 18,8 0 0 14 7 N 1015,6 15 0,0
20.09.2018 19:00:00 27,3 13,3 26,7 20,8 18,8 5 3 11 6 W 1015,3 56 0,0
20.09.2018 18:00:00 28,5 14,0 32,5 20,6 18,8 5 3 18 10 NW 1015,4 60 0,0
20.09.2018 17:00:00 28,7 13,4 34,0 20,4 18,8 7 4 17 9 WNW 1015,8 60 0,0
20.09.2018 16:00:00 28,2 14,1 37,1 20,2 18,8 7 4 16 9 NNW 1016,6 60 0,0
20.09.2018 15:00:00 28,2 14,1 37,0 20,0 18,8 4 2 17 9 SSW 1017,3 60 0,0
20.09.2018 14:00:00 27,5 14,5 37,2 19,8 18,8 4 2 13 7 NNW 1018,3 60 0,0
20.09.2018 13:00:00 26,2 14,6 36,1 19,7 18,8 5 3 15 8 WNW 1019,2 60 0,0
20.09.2018 12:00:00 25,0 13,9 33,2 19,7 18,8 5 3 13 7 W 1019,9 60 0,0
20.09.2018 11:00:00 23,6 14,0 29,8 19,7 18,8 3 2 9 5 W 1020,4 60 0,0

tt = temperature
td = dewpoint
tt 5cm = temperature 5cm
tt -20cm = temperature -20cm
tt -100cm = temperature -100cm
ff = wind speed
fx = gusts
dd = wind direction
ppp = reduced air pressure
sd = sunshine duration
rr = precipitation

Next stations